• Join FlightAware (Why Join?)
  • Login
  • US Flag 
10:58PM EST


 

Airport Tracker/Info


-or-


 

Live Flight TrackerFlight Track Log ✈ AAL2384 ✈ 06-May-2013 ✈ KDFW - KORD

Flight Track Log - Related Links

Times and Time Zones

All times are in EDT time to prevent confusion due to time zone crossing. See the AAL2384 flight status page for this flight to view local times or setup timezone preferences in your user account.

Time Position Orientation Groundspeed Altitude Reporting Facility
EDT Latitude Longitude Course Direction KTS MPH feet Rate Location/Type
10:09PM 32.9167 -97.0333 357° North 164 189 1,600  Level Dallas / Fort Worth TRACON
10:10PM 32.9833 -97.0333 360° North 251 289 3,400 2,580 Climbing Dallas / Fort Worth TRACON
10:11PM 32.8442 -96.8012 10° North  Level FlightAware Approximate
10:12PM 32.9605 -96.8000 North  Level FlightAware Approximate
10:12PM 33.1292 -97.0017 10° North 266 306 10,000  Level Fort Worth Center
10:13PM 33.0768 -96.8007 357° North  Level FlightAware Approximate
10:13PM 33.1978 -96.9592 27° Northeast 287 330 11,900  Level Fort Worth Center
10:14PM 33.1930 -96.8090 357° North  Level FlightAware Approximate
10:14PM 33.3000 -96.9064 23° Northeast 343 395 14,100  Level Fort Worth Center
10:15PM 33.3875 -96.8586 25° Northeast 373 429 16,800 2,520 Climbing Fort Worth Center
10:16PM 33.4936 -96.7958 26° Northeast 380 437 19,200 2,280 Climbing Fort Worth Center
10:17PM 33.5808 -96.7403 28° Northeast 387 445 21,400 2,160 Climbing Fort Worth Center
10:18PM 33.6933 -96.6694 28° Northeast 392 451 23,600 1,800 Climbing Fort Worth Center
10:19PM 33.7806 -96.6114 29° Northeast 392 451 25,100 1,500 Climbing Fort Worth Center
10:20PM 33.8928 -96.5403 28° Northeast 397 457 26,600 1,680 Climbing Fort Worth Center
10:21PM 33.9986 -96.4714 28° Northeast 408 470 28,500 1,500 Climbing Fort Worth Center
10:22PM 34.1025 -96.3975 30° Northeast 413 475 29,700 900 Climbing Fort Worth Center
10:23PM 34.2081 -96.3111 34° Northeast 435 501 30,300 840 Climbing Fort Worth Center
10:24PM 34.3139 -96.2217 35° Northeast 451 519 31,400 840 Climbing Fort Worth Center
10:25PM 34.4236 -96.1347 33° Northeast 464 534 32,000 600 Climbing Fort Worth Center
10:26PM 34.5289 -96.0447 35° Northeast 464 534 32,600 480 Climbing Fort Worth Center
10:27PM 34.6386 -95.9572 33° Northeast 459 528 33,000 180 Climbing Fort Worth Center
10:28PM 34.7439 -95.8669 35° Northeast 464 534 33,000  Level Fort Worth Center
10:29PM 34.8533 -95.7764 34° Northeast 464 534 33,000 420 Level Fort Worth Center
10:30PM 34.9481 -95.6911 36° Northeast 464 534 33,900 900 Climbing Fort Worth Center
10:31PM 35.0489 -95.5953 38° Northeast 464 534 34,800 540 Climbing Fort Worth Center
10:32PM 35.1478 -95.5017 38° Northeast 456 525 35,000 60 Climbing Fort Worth Center
10:34PM 35.3642 -95.2964 38° Northeast 451 519 35,000  Level Memphis Center
10:35PM 35.4619 -95.2028 38° Northeast 451 519 35,000  Level Memphis Center
10:36PM 35.5614 -95.1064 38° Northeast 451 519 35,000  Level Memphis Center
10:38PM 35.7561 -94.9181 38° Northeast 451 519 35,000  Level Memphis Center
10:39PM 35.8556 -94.8211 38° Northeast 451 519 35,000  Level Memphis Center
10:40PM 35.9569 -94.7267 37° Northeast 451 519 35,000  Level Memphis Center
10:41PM 36.0522 -94.6289 40° Northeast 451 519 35,100  Climbing Memphis Center
10:43PM 36.2519 -94.4381 38° Northeast 449 517 35,000 -60 Descending Kansas City Center
10:44PM 36.3500 -94.3419 38° Northeast 449 517 35,000  Level Kansas City Center
10:45PM 36.4472 -94.2458 38° Northeast 449 517 35,000  Level Kansas City Center
10:47PM 36.5732 -94.0936 39° Northeast  Level FlightAware Approximate
10:47PM 36.6419 -94.0553 39° Northeast 445 512 35,100  Level Kansas City Center
10:48PM 36.7367 -93.9592 39° Northeast 442 509 35,000 -60 Descending Kansas City Center
10:49PM 36.8503 -93.8456 39° Northeast 436 502 35,000 -60 Level Kansas City Center
10:50PM 36.9292 -93.7667 39° Northeast 433 498 34,900 -60 Descending Kansas City Center
10:51PM 37.0419 -93.6517 39° Northeast 435 501 34,900  Level Kansas City Center
10:52PM 37.1375 -93.5569 38° Northeast 436 502 35,000 60 Climbing Kansas City Center
10:53PM 37.2336 -93.4603 39° Northeast 440 506 35,100  Climbing Kansas City Center
10:54PM 37.3289 -93.3639 39° Northeast 439 505 35,100 -60 Level Kansas City Center
10:55PM 37.4253 -93.2728 37° Northeast 434 499 35,000 -120 Descending Kansas City Center
10:56PM 37.5197 -93.1831 37° Northeast 425 489 34,900  Descending Kansas City Center
10:57PM 37.6167 -93.0944 36° Northeast 428 493 35,000  Climbing Kansas City Center
10:58PM 37.7119 -93.0050 37° Northeast 426 490 35,000 -60 Level Kansas City Center
10:59PM 37.8075 -92.9153 37° Northeast 425 489 34,900 -60 Descending Kansas City Center
11:00PM 37.9033 -92.8253 37° Northeast 425 489 34,900 60 Level Kansas City Center
11:01PM 37.9956 -92.7383 37° Northeast 432 497 35,100 60 Climbing Kansas City Center
11:02PM 38.0922 -92.6478 36° Northeast 433 498 35,100  Level Kansas City Center
11:03PM 38.1992 -92.5469 37° Northeast 436 502 35,100 -60 Level Kansas City Center
11:04PM 38.2967 -92.4544 37° Northeast 433 498 35,000 -120 Descending Kansas City Center
11:05PM 38.3933 -92.3617 37° Northeast 430 495 34,900 -60 Descending Kansas City Center
11:06PM 38.4892 -92.2711 36° Northeast 427 491 34,900  Level Kansas City Center
11:07PM 38.5850 -92.1789 37° Northeast 427 491 34,900  Level Kansas City Center
11:08PM 38.6817 -92.0858 37° Northeast 431 496 34,900  Level Kansas City Center
11:09PM 38.7794 -91.9911 37° Northeast 436 502 35,000 60 Climbing Kansas City Center
11:10PM 38.8794 -91.8950 37° Northeast 443 510 35,100  Climbing Kansas City Center
11:11PM 38.9778 -91.8000 37° Northeast 442 509 35,100  Level Kansas City Center
11:12PM 39.0767 -91.7028 37° Northeast 444 511 35,100  Level Kansas City Center
11:13PM 39.1794 -91.6022 37° Northeast 444 511 35,100  Level Kansas City Center
11:14PM 39.2797 -91.5072 36° Northeast 445 512 35,100 -60 Level Kansas City Center
11:15PM 39.3761 -91.4094 38° Northeast 444 511 35,000 -120 Descending Kansas City Center
11:16PM 39.4714 -91.3167 37° Northeast 434 499 34,900 -60 Descending Kansas City Center
11:17PM 39.5669 -91.2217 37° Northeast 433 498 34,900  Level Kansas City Center
11:18PM 39.6628 -91.1256 38° Northeast 433 498 35,000 60 Climbing Kansas City Center
11:20PM 39.7611 -91.0281 37° Northeast 436 502 35,100  Climbing Kansas City Center
11:21PM 39.8578 -90.9317 37° Northeast 436 502 35,000  Descending Kansas City Center
11:22PM 39.9544 -90.8342 38° Northeast 438 504 35,100  Climbing Kansas City Center
11:23PM 40.0494 -90.7372 38° Northeast 436 502 35,000 -60 Descending Kansas City Center
11:23PM 40.1411 -90.6444 38° Northeast 435 501 35,000  Level Chicago Center
11:24PM 40.2408 -90.5425 38° Northeast 435 501 35,000  Level Chicago Center
11:26PM 40.3358 -90.4453 38° Northeast 434 499 35,000 -420 Level Chicago Center
11:27PM 40.4308 -90.3483 38° Northeast 433 498 34,200 -660 Descending Chicago Center
11:28PM 40.5375 -90.2367 38° Northeast 426 490 33,700 -1,080 Descending Chicago Center
11:29PM 40.6106 -90.1164 51° Northeast 425 489 32,100 -1,800 Descending Chicago Center
11:30PM 40.6897 -89.9969 49° Northeast 434 499 30,100 -2,040 Descending Chicago Center
11:31PM 40.7692 -89.8750 49° Northeast 440 506 28,000 -1,980 Descending Chicago Center
11:32PM 40.8467 -89.7519 50° Northeast 439 505 26,100 -1,920 Descending Chicago Center
11:33PM 40.9250 -89.6308 49° Northeast 437 503 24,200 -1,980 Descending Chicago Center
11:34PM 41.0006 -89.5150 49° Northeast 430 495 22,200 -1,980 Descending Chicago Center
11:35PM 41.0758 -89.3983 49° Northeast 421 484 20,300 -1,980 Descending Chicago Center
11:36PM 41.1464 -89.2858 50° Northeast 407 468 18,200 -1,980 Descending Chicago Center
11:37PM 41.2175 -89.1747 50° Northeast 396 456 16,300 -2,220 Descending Chicago Center
11:38PM 41.2961 -89.0472 51° Northeast 378 435 13,800 -2,220 Descending Chicago Center
11:39PM 41.3611 -88.9442 50° Northeast 369 425 11,800 -1,380 Descending Chicago Center
11:40PM 41.4219 -88.8486 50° Northeast 350 403 11,000 -420 Descending Chicago Center
11:41PM 41.4761 -88.7625 50° Northeast 314 361 11,000  Level Chicago Center
11:42PM 41.5239 -88.6803 52° Northeast 288 331 11,000  Level Chicago Center
11:43PM 41.5586 -88.5861 64° Northeast 284 327 11,000  Level Chicago Center
11:44PM 41.5958 -88.4950 61° Northeast 281 323 11,000 -1,140 Level Chicago Center
11:45PM 41.6394 -88.4111 55° Northeast 276 318 8,800 -2,040 Descending Chicago Center
11:46PM 41.7047 -88.3614 30° Northeast 282 325 7,000 -1,740 Descending Chicago Center
11:47PM 41.7742 -88.3189 25° Northeast 276 318 5,300 -1,500 Descending Chicago Center
11:48PM 41.8394 -88.2708 29° Northeast 271 312 4,000 -660 Descending Chicago Center
11:49PM 41.9072 -88.2267 26° Northeast 272 313 4,000 -60 Level Chicago Center
11:50PM 41.9453 -88.1464 57° Northeast 268 308 3,900 -120 Descending Chicago Center